Terminal Aerodrome Forecast
Issued by NWS Billings, MT

Home | Current Version | Previous Version | Text Only | Print | Product List | Glossary On
Versions: 1 2 3 4 5 6 7 8 9 10 11 12 13 14 15 16 17 18 19 20 21 22 23 24 25 26 27 28
000
FTUS45 KBYZ 011734
TAFSHR
TAF
KSHR 011734Z 0118/0218 07006KT P6SM SCT200
     FM020100 33014G22KT P6SM FEW100 SCT200
     FM020500 28006KT P6SM SCT200
     FM021500 32008KT P6SM SCT200=

USA.gov is the U.S. government's official web portal to all federal, state and local government web resources and services.